sensor_id;sensor_type;location;lat;lon;timestamp;P1;durP1;ratioP1;P2;durP2;ratioP2
5418;SDS011;2732;52.092;11.556;2023-04-06T00:02:29;4.30;;;3.83;;
5418;SDS011;2732;52.092;11.556;2023-04-06T00:07:30;5.30;;;3.47;;
5418;SDS011;2732;52.092;11.556;2023-04-06T00:12:30;4.80;;;3.70;;
5418;SDS011;2732;52.092;11.556;2023-04-06T00:17:31;5.27;;;3.93;;
5418;SDS011;2732;52.092;11.556;2023-04-06T00:22:32;3.83;;;3.30;;
5418;SDS011;2732;52.092;11.556;2023-04-06T00:27:33;4.80;;;3.80;;
5418;SDS011;2732;52.092;11.556;2023-04-06T00:32:34;4.97;;;3.93;;
5418;SDS011;2732;52.092;11.556;2023-04-06T00:37:35;5.17;;;3.80;;
5418;SDS011;2732;52.092;11.556;2023-04-06T00:42:36;3.87;;;3.47;;
5418;SDS011;2732;52.092;11.556;2023-04-06T00:47:37;7.50;;;3.87;;
5418;SDS011;2732;52.092;11.556;2023-04-06T00:52:37;6.27;;;4.13;;
5418;SDS011;2732;52.092;11.556;2023-04-06T00:57:38;8.60;;;3.57;;
5418;SDS011;2732;52.092;11.556;2023-04-06T01:02:38;9.53;;;4.40;;
5418;SDS011;2732;52.092;11.556;2023-04-06T01:07:39;6.70;;;3.80;;
5418;SDS011;2732;52.092;11.556;2023-04-06T01:12:40;5.47;;;3.83;;
5418;SDS011;2732;52.092;11.556;2023-04-06T01:17:40;7.70;;;5.20;;
5418;SDS011;2732;52.092;11.556;2023-04-06T01:22:41;5.30;;;4.17;;
5418;SDS011;2732;52.092;11.556;2023-04-06T01:27:42;8.33;;;4.93;;
5418;SDS011;2732;52.092;11.556;2023-04-06T01:32:43;6.37;;;5.10;;
5418;SDS011;2732;52.092;11.556;2023-04-06T01:37:45;7.47;;;5.10;;
5418;SDS011;2732;52.092;11.556;2023-04-06T01:42:47;6.43;;;4.60;;
5418;SDS011;2732;52.092;11.556;2023-04-06T01:47:48;10.70;;;4.90;;
5418;SDS011;2732;52.092;11.556;2023-04-06T01:52:49;6.53;;;4.60;;
5418;SDS011;2732;52.092;11.556;2023-04-06T01:57:49;9.37;;;5.43;;
5418;SDS011;2732;52.092;11.556;2023-04-06T02:02:50;12.20;;;5.60;;
5418;SDS011;2732;52.092;11.556;2023-04-06T02:07:51;7.17;;;4.80;;
5418;SDS011;2732;52.092;11.556;2023-04-06T02:12:51;5.37;;;4.83;;
5418;SDS011;2732;52.092;11.556;2023-04-06T02:17:52;6.40;;;5.43;;
5418;SDS011;2732;52.092;11.556;2023-04-06T02:22:53;9.57;;;5.67;;
5418;SDS011;2732;52.092;11.556;2023-04-06T02:27:58;7.10;;;5.10;;
5418;SDS011;2732;52.092;11.556;2023-04-06T02:32:59;11.60;;;6.80;;
5418;SDS011;2732;52.092;11.556;2023-04-06T02:38:00;12.60;;;6.10;;
5418;SDS011;2732;52.092;11.556;2023-04-06T02:43:01;11.97;;;7.17;;
5418;SDS011;2732;52.092;11.556;2023-04-06T02:48:02;11.70;;;6.47;;
5418;SDS011;2732;52.092;11.556;2023-04-06T02:53:02;14.17;;;6.37;;
5418;SDS011;2732;52.092;11.556;2023-04-06T02:58:03;6.50;;;5.37;;
5418;SDS011;2732;52.092;11.556;2023-04-06T03:03:03;8.33;;;5.70;;
5418;SDS011;2732;52.092;11.556;2023-04-06T03:08:04;7.67;;;5.47;;
5418;SDS011;2732;52.092;11.556;2023-04-06T03:13:05;9.60;;;5.70;;
5418;SDS011;2732;52.092;11.556;2023-04-06T03:18:06;7.20;;;5.53;;
5418;SDS011;2732;52.092;11.556;2023-04-06T03:23:06;9.27;;;5.67;;
5418;SDS011;2732;52.092;11.556;2023-04-06T03:28:07;14.83;;;5.50;;
5418;SDS011;2732;52.092;11.556;2023-04-06T03:33:07;9.97;;;6.07;;
5418;SDS011;2732;52.092;11.556;2023-04-06T03:38:08;9.90;;;5.47;;
5418;SDS011;2732;52.092;11.556;2023-04-06T03:43:09;7.40;;;5.60;;
5418;SDS011;2732;52.092;11.556;2023-04-06T03:48:10;8.77;;;5.87;;
5418;SDS011;2732;52.092;11.556;2023-04-06T03:53:10;7.83;;;5.90;;
5418;SDS011;2732;52.092;11.556;2023-04-06T03:58:11;9.80;;;6.00;;
5418;SDS011;2732;52.092;11.556;2023-04-06T04:03:12;6.50;;;5.80;;
5418;SDS011;2732;52.092;11.556;2023-04-06T04:08:12;10.70;;;6.20;;
5418;SDS011;2732;52.092;11.556;2023-04-06T04:13:13;9.23;;;5.60;;
5418;SDS011;2732;52.092;11.556;2023-04-06T04:18:13;7.70;;;4.73;;
5418;SDS011;2732;52.092;11.556;2023-04-06T04:23:14;8.60;;;5.80;;
5418;SDS011;2732;52.092;11.556;2023-04-06T04:28:14;7.13;;;5.40;;
5418;SDS011;2732;52.092;11.556;2023-04-06T04:33:15;7.50;;;5.43;;
5418;SDS011;2732;52.092;11.556;2023-04-06T04:38:16;8.70;;;6.13;;
5418;SDS011;2732;52.092;11.556;2023-04-06T04:43:16;8.70;;;5.33;;
5418;SDS011;2732;52.092;11.556;2023-04-06T04:48:17;12.87;;;5.90;;
5418;SDS011;2732;52.092;11.556;2023-04-06T04:53:17;9.07;;;5.67;;
5418;SDS011;2732;52.092;11.556;2023-04-06T04:58:18;9.87;;;5.40;;
5418;SDS011;2732;52.092;11.556;2023-04-06T05:03:20;11.17;;;5.67;;
5418;SDS011;2732;52.092;11.556;2023-04-06T05:08:23;13.60;;;5.90;;
5418;SDS011;2732;52.092;11.556;2023-04-06T05:13:24;8.23;;;5.70;;
5418;SDS011;2732;52.092;11.556;2023-04-06T05:18:25;9.43;;;5.97;;
5418;SDS011;2732;52.092;11.556;2023-04-06T05:23:26;9.50;;;6.17;;
5418;SDS011;2732;52.092;11.556;2023-04-06T05:28:28;8.77;;;6.00;;
5418;SDS011;2732;52.092;11.556;2023-04-06T05:33:29;14.77;;;7.20;;
5418;SDS011;2732;52.092;11.556;2023-04-06T05:38:30;13.30;;;7.80;;
5418;SDS011;2732;52.092;11.556;2023-04-06T05:43:31;14.10;;;8.43;;
5418;SDS011;2732;52.092;11.556;2023-04-06T05:48:31;22.97;;;10.13;;
5418;SDS011;2732;52.092;11.556;2023-04-06T05:53:32;14.67;;;8.00;;
5418;SDS011;2732;52.092;11.556;2023-04-06T05:58:33;19.60;;;8.30;;
5418;SDS011;2732;52.092;11.556;2023-04-06T06:03:33;9.20;;;6.20;;
5418;SDS011;2732;52.092;11.556;2023-04-06T06:08:34;10.20;;;7.60;;
5418;SDS011;2732;52.092;11.556;2023-04-06T06:13:35;22.20;;;7.40;;
5418;SDS011;2732;52.092;11.556;2023-04-06T06:18:35;14.17;;;6.77;;
5418;SDS011;2732;52.092;11.556;2023-04-06T06:23:36;11.63;;;7.80;;
5418;SDS011;2732;52.092;11.556;2023-04-06T06:28:37;13.03;;;7.87;;
5418;SDS011;2732;52.092;11.556;2023-04-06T06:33:37;13.97;;;7.07;;
5418;SDS011;2732;52.092;11.556;2023-04-06T06:38:38;13.97;;;6.67;;
5418;SDS011;2732;52.092;11.556;2023-04-06T06:43:39;11.10;;;6.13;;
5418;SDS011;2732;52.092;11.556;2023-04-06T06:48:39;6.87;;;5.27;;
5418;SDS011;2732;52.092;11.556;2023-04-06T06:53:40;11.50;;;7.30;;
5418;SDS011;2732;52.092;11.556;2023-04-06T06:58:41;8.10;;;6.37;;
5418;SDS011;2732;52.092;11.556;2023-04-06T07:03:41;15.30;;;5.53;;
5418;SDS011;2732;52.092;11.556;2023-04-06T07:08:42;10.73;;;6.00;;
5418;SDS011;2732;52.092;11.556;2023-04-06T07:13:42;15.10;;;7.00;;
5418;SDS011;2732;52.092;11.556;2023-04-06T07:18:43;11.37;;;6.80;;
5418;SDS011;2732;52.092;11.556;2023-04-06T07:23:43;12.23;;;6.67;;
5418;SDS011;2732;52.092;11.556;2023-04-06T07:28:44;12.10;;;6.00;;
5418;SDS011;2732;52.092;11.556;2023-04-06T07:33:45;8.10;;;5.13;;
5418;SDS011;2732;52.092;11.556;2023-04-06T07:38:47;11.23;;;7.57;;
5418;SDS011;2732;52.092;11.556;2023-04-06T07:43:48;10.30;;;6.50;;
5418;SDS011;2732;52.092;11.556;2023-04-06T07:48:50;7.33;;;5.63;;
5418;SDS011;2732;52.092;11.556;2023-04-06T07:53:51;6.73;;;5.27;;
5418;SDS011;2732;52.092;11.556;2023-04-06T07:58:52;9.17;;;6.07;;
5418;SDS011;2732;52.092;11.556;2023-04-06T08:03:55;8.73;;;6.53;;
5418;SDS011;2732;52.092;11.556;2023-04-06T08:08:57;12.40;;;7.93;;
5418;SDS011;2732;52.092;11.556;2023-04-06T08:13:57;7.67;;;5.80;;
5418;SDS011;2732;52.092;11.556;2023-04-06T08:18:58;9.47;;;7.07;;
5418;SDS011;2732;52.092;11.556;2023-04-06T08:23:58;11.00;;;7.27;;
5418;SDS011;2732;52.092;11.556;2023-04-06T08:28:59;11.60;;;7.40;;
5418;SDS011;2732;52.092;11.556;2023-04-06T08:34:00;7.47;;;5.93;;
5418;SDS011;2732;52.092;11.556;2023-04-06T08:39:01;6.70;;;6.00;;
5418;SDS011;2732;52.092;11.556;2023-04-06T08:44:02;5.47;;;4.97;;
5418;SDS011;2732;52.092;11.556;2023-04-06T08:49:03;19.77;;;6.40;;
5418;SDS011;2732;52.092;11.556;2023-04-06T08:54:07;9.97;;;5.80;;
5418;SDS011;2732;52.092;11.556;2023-04-06T08:59:08;7.10;;;5.40;;
5418;SDS011;2732;52.092;11.556;2023-04-06T09:04:10;7.60;;;5.60;;
5418;SDS011;2732;52.092;11.556;2023-04-06T09:09:11;6.30;;;5.20;;
5418;SDS011;2732;52.092;11.556;2023-04-06T09:14:12;11.93;;;6.07;;
5418;SDS011;2732;52.092;11.556;2023-04-06T09:19:12;8.63;;;6.50;;
5418;SDS011;2732;52.092;11.556;2023-04-06T09:24:13;5.57;;;5.07;;
5418;SDS011;2732;52.092;11.556;2023-04-06T09:29:23;7.30;;;5.63;;
5418;SDS011;2732;52.092;11.556;2023-04-06T09:34:27;7.47;;;6.63;;
5418;SDS011;2732;52.092;11.556;2023-04-06T09:39:28;9.47;;;5.93;;
5418;SDS011;2732;52.092;11.556;2023-04-06T09:44:29;6.87;;;5.13;;
5418;SDS011;2732;52.092;11.556;2023-04-06T09:49:30;13.20;;;6.27;;
5418;SDS011;2732;52.092;11.556;2023-04-06T09:54:33;10.67;;;6.50;;
5418;SDS011;2732;52.092;11.556;2023-04-06T09:59:38;10.90;;;6.63;;
5418;SDS011;2732;52.092;11.556;2023-04-06T10:05:11;14.60;;;6.17;;
5418;SDS011;2732;52.092;11.556;2023-04-06T10:10:31;8.67;;;6.27;;
5418;SDS011;2732;52.092;11.556;2023-04-06T10:15:33;7.33;;;5.60;;
5418;SDS011;2732;52.092;11.556;2023-04-06T10:26:01;8.63;;;4.90;;
5418;SDS011;2732;52.092;11.556;2023-04-06T10:31:07;7.60;;;5.23;;
5418;SDS011;2732;52.092;11.556;2023-04-06T10:36:14;8.07;;;5.30;;
5418;SDS011;2732;52.092;11.556;2023-04-06T10:41:22;7.33;;;5.90;;
5418;SDS011;2732;52.092;11.556;2023-04-06T10:46:27;7.10;;;5.60;;
5418;SDS011;2732;52.092;11.556;2023-04-06T10:51:32;8.30;;;5.93;;
5418;SDS011;2732;52.092;11.556;2023-04-06T10:56:33;8.00;;;6.50;;
5418;SDS011;2732;52.092;11.556;2023-04-06T11:01:38;5.73;;;5.10;;
5418;SDS011;2732;52.092;11.556;2023-04-06T11:06:48;6.47;;;5.87;;
5418;SDS011;2732;52.092;11.556;2023-04-06T11:11:49;6.60;;;5.90;;
5418;SDS011;2732;52.092;11.556;2023-04-06T11:16:50;21.37;;;6.40;;
5418;SDS011;2732;52.092;11.556;2023-04-06T11:21:51;7.03;;;6.30;;
5418;SDS011;2732;52.092;11.556;2023-04-06T11:26:53;13.27;;;7.00;;
5418;SDS011;2732;52.092;11.556;2023-04-06T11:31:59;8.10;;;6.40;;
5418;SDS011;2732;52.092;11.556;2023-04-06T11:37:02;9.73;;;7.20;;
5418;SDS011;2732;52.092;11.556;2023-04-06T11:42:07;9.73;;;7.27;;
5418;SDS011;2732;52.092;11.556;2023-04-06T11:47:09;6.90;;;6.20;;
5418;SDS011;2732;52.092;11.556;2023-04-06T11:57:23;9.10;;;8.10;;
5418;SDS011;2732;52.092;11.556;2023-04-06T12:02:27;10.07;;;7.10;;
5418;SDS011;2732;52.092;11.556;2023-04-06T12:07:28;7.87;;;6.10;;
5418;SDS011;2732;52.092;11.556;2023-04-06T12:12:30;10.90;;;6.67;;
5418;SDS011;2732;52.092;11.556;2023-04-06T12:17:31;8.50;;;6.10;;
5418;SDS011;2732;52.092;11.556;2023-04-06T12:22:33;10.30;;;6.80;;
5418;SDS011;2732;52.092;11.556;2023-04-06T12:27:33;9.30;;;7.30;;
5418;SDS011;2732;52.092;11.556;2023-04-06T12:32:34;8.57;;;6.63;;
5418;SDS011;2732;52.092;11.556;2023-04-06T12:37:35;9.60;;;6.97;;
5418;SDS011;2732;52.092;11.556;2023-04-06T12:42:36;8.43;;;7.20;;
5418;SDS011;2732;52.092;11.556;2023-04-06T12:47:40;7.53;;;6.87;;
5418;SDS011;2732;52.092;11.556;2023-04-06T12:52:40;8.60;;;5.33;;
5418;SDS011;2732;52.092;11.556;2023-04-06T12:57:41;10.40;;;6.70;;
5418;SDS011;2732;52.092;11.556;2023-04-06T13:02:42;7.70;;;6.10;;
5418;SDS011;2732;52.092;11.556;2023-04-06T13:07:46;7.13;;;6.00;;
5418;SDS011;2732;52.092;11.556;2023-04-06T13:12:47;8.47;;;7.47;;
5418;SDS011;2732;52.092;11.556;2023-04-06T13:17:47;7.30;;;5.60;;
5418;SDS011;2732;52.092;11.556;2023-04-06T13:22:48;9.37;;;5.77;;
5418;SDS011;2732;52.092;11.556;2023-04-06T13:27:49;6.53;;;5.57;;
5418;SDS011;2732;52.092;11.556;2023-04-06T13:32:50;10.40;;;6.70;;
5418;SDS011;2732;52.092;11.556;2023-04-06T13:37:51;7.90;;;5.97;;
5418;SDS011;2732;52.092;11.556;2023-04-06T13:42:53;6.43;;;5.90;;
5418;SDS011;2732;52.092;11.556;2023-04-06T13:47:53;5.97;;;5.27;;
5418;SDS011;2732;52.092;11.556;2023-04-06T13:52:54;6.90;;;5.63;;
5418;SDS011;2732;52.092;11.556;2023-04-06T13:57:56;6.20;;;5.30;;
5418;SDS011;2732;52.092;11.556;2023-04-06T14:02:56;6.57;;;5.23;;
5418;SDS011;2732;52.092;11.556;2023-04-06T14:07:57;5.37;;;4.97;;
5418;SDS011;2732;52.092;11.556;2023-04-06T14:12:57;6.13;;;5.53;;
5418;SDS011;2732;52.092;11.556;2023-04-06T14:17:58;8.97;;;6.30;;
5418;SDS011;2732;52.092;11.556;2023-04-06T14:23:02;6.13;;;5.53;;
5418;SDS011;2732;52.092;11.556;2023-04-06T14:28:03;6.63;;;5.50;;
5418;SDS011;2732;52.092;11.556;2023-04-06T14:33:04;8.37;;;5.60;;
5418;SDS011;2732;52.092;11.556;2023-04-06T14:38:04;6.47;;;5.87;;
5418;SDS011;2732;52.092;11.556;2023-04-06T14:43:05;8.30;;;6.93;;
5418;SDS011;2732;52.092;11.556;2023-04-06T14:48:06;6.60;;;6.00;;
5418;SDS011;2732;52.092;11.556;2023-04-06T14:53:06;6.77;;;6.13;;
5418;SDS011;2732;52.092;11.556;2023-04-06T14:58:07;6.50;;;5.83;;
5418;SDS011;2732;52.092;11.556;2023-04-06T15:03:08;10.97;;;6.50;;
5418;SDS011;2732;52.092;11.556;2023-04-06T15:08:09;13.23;;;6.63;;
5418;SDS011;2732;52.092;11.556;2023-04-06T15:13:11;10.07;;;6.50;;
5418;SDS011;2732;52.092;11.556;2023-04-06T15:18:12;5.83;;;5.30;;
5418;SDS011;2732;52.092;11.556;2023-04-06T15:23:12;5.90;;;5.20;;
5418;SDS011;2732;52.092;11.556;2023-04-06T15:28:13;6.70;;;5.90;;
5418;SDS011;2732;52.092;11.556;2023-04-06T15:33:14;6.57;;;5.97;;
5418;SDS011;2732;52.092;11.556;2023-04-06T15:38:15;5.63;;;5.13;;
5418;SDS011;2732;52.092;11.556;2023-04-06T15:43:15;8.43;;;6.73;;
5418;SDS011;2732;52.092;11.556;2023-04-06T15:48:17;6.00;;;5.33;;
5418;SDS011;2732;52.092;11.556;2023-04-06T15:53:18;6.00;;;5.20;;
5418;SDS011;2732;52.092;11.556;2023-04-06T15:58:18;6.47;;;5.80;;
5418;SDS011;2732;52.092;11.556;2023-04-06T16:03:19;9.83;;;5.77;;
5418;SDS011;2732;52.092;11.556;2023-04-06T16:08:20;6.27;;;5.67;;
5418;SDS011;2732;52.092;11.556;2023-04-06T16:13:21;6.10;;;5.50;;
5418;SDS011;2732;52.092;11.556;2023-04-06T16:18:21;10.10;;;6.00;;
5418;SDS011;2732;52.092;11.556;2023-04-06T16:23:22;7.40;;;5.27;;
5418;SDS011;2732;52.092;11.556;2023-04-06T16:28:22;5.97;;;5.27;;
5418;SDS011;2732;52.092;11.556;2023-04-06T16:33:24;7.57;;;5.43;;
5418;SDS011;2732;52.092;11.556;2023-04-06T16:38:25;6.27;;;5.67;;
5418;SDS011;2732;52.092;11.556;2023-04-06T16:43:30;6.30;;;5.57;;
5418;SDS011;2732;52.092;11.556;2023-04-06T16:48:32;5.27;;;4.77;;
5418;SDS011;2732;52.092;11.556;2023-04-06T16:53:33;5.33;;;4.83;;
5418;SDS011;2732;52.092;11.556;2023-04-06T16:58:34;9.83;;;5.13;;
5418;SDS011;2732;52.092;11.556;2023-04-06T17:03:36;5.97;;;4.80;;
5418;SDS011;2732;52.092;11.556;2023-04-06T17:08:37;8.80;;;5.50;;
5418;SDS011;2732;52.092;11.556;2023-04-06T17:13:37;10.30;;;5.53;;
5418;SDS011;2732;52.092;11.556;2023-04-06T17:18:42;7.63;;;5.80;;
5418;SDS011;2732;52.092;11.556;2023-04-06T17:23:42;6.33;;;5.53;;
5418;SDS011;2732;52.092;11.556;2023-04-06T17:28:43;11.50;;;5.93;;
5418;SDS011;2732;52.092;11.556;2023-04-06T17:33:44;5.80;;;4.83;;
5418;SDS011;2732;52.092;11.556;2023-04-06T17:38:46;6.20;;;5.70;;
5418;SDS011;2732;52.092;11.556;2023-04-06T17:43:47;5.97;;;5.37;;
5418;SDS011;2732;52.092;11.556;2023-04-06T17:48:50;7.63;;;5.17;;
5418;SDS011;2732;52.092;11.556;2023-04-06T17:53:52;6.60;;;6.00;;
5418;SDS011;2732;52.092;11.556;2023-04-06T17:58:55;12.30;;;6.83;;
5418;SDS011;2732;52.092;11.556;2023-04-06T18:03:56;8.87;;;6.50;;
5418;SDS011;2732;52.092;11.556;2023-04-06T18:08:57;9.80;;;6.90;;
5418;SDS011;2732;52.092;11.556;2023-04-06T18:13:58;7.70;;;6.20;;
5418;SDS011;2732;52.092;11.556;2023-04-06T18:18:59;7.23;;;6.10;;
5418;SDS011;2732;52.092;11.556;2023-04-06T18:24:00;9.07;;;6.20;;
5418;SDS011;2732;52.092;11.556;2023-04-06T18:29:01;8.27;;;6.00;;
5418;SDS011;2732;52.092;11.556;2023-04-06T18:34:02;7.83;;;7.03;;
5418;SDS011;2732;52.092;11.556;2023-04-06T18:39:03;11.03;;;7.60;;
5418;SDS011;2732;52.092;11.556;2023-04-06T18:44:04;17.60;;;7.60;;
5418;SDS011;2732;52.092;11.556;2023-04-06T18:49:05;9.40;;;7.53;;
5418;SDS011;2732;52.092;11.556;2023-04-06T18:54:05;9.13;;;7.57;;
5418;SDS011;2732;52.092;11.556;2023-04-06T18:59:06;9.50;;;7.20;;
5418;SDS011;2732;52.092;11.556;2023-04-06T19:04:11;10.23;;;7.90;;
5418;SDS011;2732;52.092;11.556;2023-04-06T19:09:11;9.80;;;8.80;;
5418;SDS011;2732;52.092;11.556;2023-04-06T19:14:12;10.43;;;8.40;;
5418;SDS011;2732;52.092;11.556;2023-04-06T19:19:12;11.87;;;7.60;;
5418;SDS011;2732;52.092;11.556;2023-04-06T19:24:14;12.83;;;7.40;;
5418;SDS011;2732;52.092;11.556;2023-04-06T19:29:14;17.17;;;8.60;;
5418;SDS011;2732;52.092;11.556;2023-04-06T19:34:15;11.57;;;7.27;;
5418;SDS011;2732;52.092;11.556;2023-04-06T19:39:16;7.80;;;6.40;;
5418;SDS011;2732;52.092;11.556;2023-04-06T19:44:17;9.90;;;6.80;;
5418;SDS011;2732;52.092;11.556;2023-04-06T19:49:18;10.30;;;8.20;;
5418;SDS011;2732;52.092;11.556;2023-04-06T19:54:18;7.43;;;6.63;;
5418;SDS011;2732;52.092;11.556;2023-04-06T19:59:19;14.90;;;6.77;;
5418;SDS011;2732;52.092;11.556;2023-04-06T20:04:21;11.70;;;7.40;;
5418;SDS011;2732;52.092;11.556;2023-04-06T20:09:22;8.40;;;7.07;;
5418;SDS011;2732;52.092;11.556;2023-04-06T20:14:23;9.70;;;7.30;;
5418;SDS011;2732;52.092;11.556;2023-04-06T20:19:24;10.00;;;8.00;;
5418;SDS011;2732;52.092;11.556;2023-04-06T20:24:25;13.80;;;7.97;;
5418;SDS011;2732;52.092;11.556;2023-04-06T20:29:25;15.93;;;9.33;;
5418;SDS011;2732;52.092;11.556;2023-04-06T20:34:26;16.33;;;9.73;;
5418;SDS011;2732;52.092;11.556;2023-04-06T20:39:30;20.60;;;12.60;;
5418;SDS011;2732;52.092;11.556;2023-04-06T20:44:31;23.23;;;15.03;;
5418;SDS011;2732;52.092;11.556;2023-04-06T20:49:32;21.73;;;12.40;;
5418;SDS011;2732;52.092;11.556;2023-04-06T20:54:33;14.43;;;10.57;;
5418;SDS011;2732;52.092;11.556;2023-04-06T20:59:34;12.60;;;8.60;;
5418;SDS011;2732;52.092;11.556;2023-04-06T21:04:34;11.03;;;8.47;;
5418;SDS011;2732;52.092;11.556;2023-04-06T21:09:36;13.10;;;7.67;;
5418;SDS011;2732;52.092;11.556;2023-04-06T21:14:38;18.90;;;7.70;;
5418;SDS011;2732;52.092;11.556;2023-04-06T21:19:40;11.77;;;7.30;;
5418;SDS011;2732;52.092;11.556;2023-04-06T21:24:40;13.07;;;9.30;;
5418;SDS011;2732;52.092;11.556;2023-04-06T21:29:41;25.03;;;18.27;;
5418;SDS011;2732;52.092;11.556;2023-04-06T21:34:42;32.83;;;24.87;;
5418;SDS011;2732;52.092;11.556;2023-04-06T21:39:44;42.10;;;27.23;;
5418;SDS011;2732;52.092;11.556;2023-04-06T21:44:45;38.20;;;26.00;;
5418;SDS011;2732;52.092;11.556;2023-04-06T21:49:45;35.80;;;24.10;;
5418;SDS011;2732;52.092;11.556;2023-04-06T21:54:46;34.17;;;23.17;;
5418;SDS011;2732;52.092;11.556;2023-04-06T21:59:47;25.37;;;16.43;;
5418;SDS011;2732;52.092;11.556;2023-04-06T22:04:47;20.17;;;14.47;;
5418;SDS011;2732;52.092;11.556;2023-04-06T22:09:49;19.83;;;14.30;;
5418;SDS011;2732;52.092;11.556;2023-04-06T22:14:50;16.37;;;11.33;;
5418;SDS011;2732;52.092;11.556;2023-04-06T22:19:51;17.10;;;11.40;;
5418;SDS011;2732;52.092;11.556;2023-04-06T22:24:51;17.93;;;9.43;;
5418;SDS011;2732;52.092;11.556;2023-04-06T22:29:52;15.63;;;9.80;;
5418;SDS011;2732;52.092;11.556;2023-04-06T22:34:53;16.17;;;10.77;;
5418;SDS011;2732;52.092;11.556;2023-04-06T22:39:53;19.63;;;11.27;;
5418;SDS011;2732;52.092;11.556;2023-04-06T22:44:54;20.03;;;11.20;;
5418;SDS011;2732;52.092;11.556;2023-04-06T22:49:54;17.60;;;11.60;;
5418;SDS011;2732;52.092;11.556;2023-04-06T22:54:55;19.73;;;13.20;;
5418;SDS011;2732;52.092;11.556;2023-04-06T22:59:56;20.53;;;13.50;;
5418;SDS011;2732;52.092;11.556;2023-04-06T23:04:56;22.23;;;13.00;;
5418;SDS011;2732;52.092;11.556;2023-04-06T23:09:57;18.70;;;12.50;;
5418;SDS011;2732;52.092;11.556;2023-04-06T23:14:58;24.93;;;13.70;;
5418;SDS011;2732;52.092;11.556;2023-04-06T23:19:58;21.10;;;13.97;;
5418;SDS011;2732;52.092;11.556;2023-04-06T23:24:59;21.70;;;13.07;;
5418;SDS011;2732;52.092;11.556;2023-04-06T23:30:00;21.60;;;12.50;;
5418;SDS011;2732;52.092;11.556;2023-04-06T23:35:00;17.03;;;12.33;;
5418;SDS011;2732;52.092;11.556;2023-04-06T23:40:01;24.93;;;11.73;;
5418;SDS011;2732;52.092;11.556;2023-04-06T23:45:03;17.93;;;12.83;;
5418;SDS011;2732;52.092;11.556;2023-04-06T23:50:05;20.10;;;12.13;;
5418;SDS011;2732;52.092;11.556;2023-04-06T23:55:06;26.73;;;12.63;;
